createdAt,value
2019-05-13T00:02:16.747Z,58.50
2019-05-13T00:04:47.535Z,58.64
2019-05-13T00:07:18.002Z,58.67
2019-05-13T00:09:47.793Z,58.85
2019-05-13T00:12:17.850Z,58.81
2019-05-13T00:14:47.788Z,59.03
2019-05-13T00:17:17.585Z,58.85
2019-05-13T00:19:47.784Z,59.06
2019-05-13T00:22:17.665Z,58.98
2019-05-13T00:24:47.451Z,59.09
2019-05-13T00:27:17.761Z,59.21
2019-05-13T00:29:47.891Z,59.31
2019-05-13T00:32:17.760Z,59.31
2019-05-13T00:34:47.613Z,59.41
2019-05-13T00:37:17.586Z,59.35
2019-05-13T00:39:47.512Z,59.27
2019-05-13T00:42:17.845Z,59.41
2019-05-13T00:44:47.853Z,59.32
2019-05-13T00:47:18.156Z,59.34
2019-05-13T00:49:48.000Z,59.65
2019-05-13T00:52:17.934Z,59.85
2019-05-13T00:54:47.799Z,59.68
2019-05-13T00:57:17.717Z,59.85
2019-05-13T00:59:47.631Z,59.67
2019-05-13T01:02:17.442Z,59.66
2019-05-13T01:04:47.326Z,59.60
2019-05-13T01:07:25.969Z,59.67
2019-05-13T01:09:49.423Z,59.78
2019-05-13T01:12:19.540Z,59.86
2019-05-13T01:14:49.847Z,59.72
2019-05-13T01:17:19.825Z,59.85
2019-05-13T01:19:49.880Z,60.03
2019-05-13T01:22:19.669Z,60.14
2019-05-13T01:24:49.446Z,60.24
2019-05-13T01:27:19.464Z,60.39
2019-05-13T01:29:49.469Z,60.41
2019-05-13T01:32:19.342Z,60.32
2019-05-13T01:34:49.188Z,60.29
2019-05-13T01:37:19.239Z,60.34
2019-05-13T01:39:49.468Z,60.37
2019-05-13T01:42:19.623Z,60.48
2019-05-13T01:44:49.765Z,60.50
2019-05-13T01:47:19.774Z,60.58
2019-05-13T01:49:49.637Z,60.56
2019-05-13T01:52:19.404Z,60.59
2019-05-13T01:54:49.322Z,60.72
2019-05-13T01:57:23.819Z,60.76
2019-05-13T01:59:53.973Z,60.86
2019-05-13T02:02:27.065Z,60.88
2019-05-13T02:05:03.959Z,60.79
2019-05-13T02:07:38.012Z,60.85
2019-05-13T02:10:14.365Z,60.96
2019-05-13T02:12:44.706Z,60.96
2019-05-13T02:15:15.316Z,60.94
2019-05-13T02:17:47.677Z,61.03
2019-05-13T02:20:17.833Z,61.04
2019-05-13T02:22:47.771Z,61.20
2019-05-13T02:25:17.555Z,61.08
2019-05-13T02:27:48.397Z,61.13
2019-05-13T02:30:18.503Z,61.23
2019-05-13T02:32:48.596Z,61.29
2019-05-13T02:35:18.654Z,61.38
2019-05-13T02:37:48.803Z,61.46
2019-05-13T02:40:22.393Z,61.57
2019-05-13T02:42:52.344Z,61.70
2019-05-13T02:45:22.883Z,61.65
2019-05-13T02:47:52.837Z,61.42
2019-05-13T02:50:22.916Z,61.44
2019-05-13T02:52:53.329Z,61.42
2019-05-13T02:55:23.292Z,61.56
2019-05-13T02:57:53.793Z,61.63
2019-05-13T03:00:24.746Z,61.59
2019-05-13T03:02:54.645Z,61.70
2019-05-13T03:05:24.483Z,61.65
2019-05-13T03:07:54.457Z,61.68
2019-05-13T03:10:25.506Z,61.70
2019-05-13T03:12:55.360Z,61.78
2019-05-13T03:15:27.108Z,61.70
2019-05-13T03:18:06.887Z,61.80
2019-05-13T03:20:37.194Z,61.66
2019-05-13T03:23:07.493Z,61.65
2019-05-13T03:25:37.421Z,61.85
2019-05-13T03:28:07.684Z,61.76
2019-05-13T03:30:37.506Z,61.59
2019-05-13T03:33:11.100Z,61.78
2019-05-13T03:35:44.706Z,61.86
2019-05-13T03:38:12.777Z,61.86
2019-05-13T03:40:43.068Z,61.77
2019-05-13T03:43:14.761Z,61.82
2019-05-13T03:45:46.037Z,61.90
2019-05-13T03:48:17.408Z,61.92
2019-05-13T03:50:47.381Z,61.76
2019-05-13T03:53:17.596Z,61.88
2019-05-13T03:55:49.379Z,61.90
2019-05-13T03:58:23.653Z,61.92
2019-05-13T04:00:51.920Z,61.84
2019-05-13T04:03:22.942Z,61.82
2019-05-13T04:05:53.808Z,62.17
2019-05-13T04:08:23.800Z,62.06
2019-05-13T04:10:53.757Z,61.74
2019-05-13T04:13:23.634Z,61.99
2019-05-13T04:15:57.365Z,61.96
2019-05-13T04:18:27.371Z,61.92
2019-05-13T04:20:57.501Z,62.05
2019-05-13T04:23:32.130Z,61.92
2019-05-13T04:26:03.016Z,61.81
2019-05-13T04:28:33.283Z,61.67
2019-05-13T04:31:03.996Z,61.69
2019-05-13T04:33:33.995Z,61.33
2019-05-13T04:36:03.996Z,61.17
2019-05-13T04:38:34.221Z,61.03
2019-05-13T04:41:04.395Z,61.03
2019-05-13T04:43:34.893Z,61.23
2019-05-13T04:46:05.047Z,60.95
2019-05-13T04:48:39.285Z,61.21
2019-05-13T04:51:06.573Z,60.96
2019-05-13T04:53:37.315Z,60.76
2019-05-13T04:56:09.130Z,60.83
2019-05-13T04:58:42.695Z,60.55
2019-05-13T05:01:40.372Z,60.47
2019-05-13T05:04:28.735Z,60.24
2019-05-13T05:07:32.780Z,59.97
2019-05-13T05:10:38.307Z,57.54
2019-05-13T05:13:12.963Z,51.73
2019-05-13T05:16:14.156Z,47.35
2019-05-13T05:19:14.424Z,45.69
2019-05-13T05:22:02.701Z,44.38
2019-05-13T05:24:58.392Z,43.87
2019-05-13T05:28:34.148Z,44.23
2019-05-13T05:31:26.984Z,43.97
2019-05-13T05:34:41.982Z,42.81
2019-05-13T05:37:42.789Z,41.88
2019-05-13T05:40:27.084Z,41.46
2019-05-13T05:42:46.976Z,40.37
2019-05-13T05:45:18.628Z,40.26
2019-05-13T05:47:51.767Z,39.71
2019-05-13T05:50:23.028Z,39.04
2019-05-13T05:52:56.017Z,39.36
2019-05-13T05:55:29.129Z,39.43
2019-05-13T05:58:02.931Z,38.79
2019-05-13T06:00:33.310Z,37.69
2019-05-13T06:03:04.788Z,36.90
2019-05-13T06:05:36.327Z,37.19
2019-05-13T06:08:06.647Z,37.17
2019-05-13T06:10:49.191Z,36.93
2019-05-13T06:13:08.694Z,38.08
2019-05-13T06:15:38.853Z,38.95
2019-05-13T06:18:08.773Z,38.88
2019-05-13T06:20:38.937Z,39.68
2019-05-13T06:23:11.343Z,42.63
2019-05-13T06:25:42.778Z,44.05
2019-05-13T06:28:13.080Z,45.32
2019-05-13T06:30:43.067Z,45.57
2019-05-13T06:33:13.143Z,46.54
2019-05-13T06:35:44.866Z,47.49
2019-05-13T06:38:14.907Z,48.42
2019-05-13T06:40:58.111Z,48.96
2019-05-13T06:43:16.495Z,49.97
2019-05-13T06:45:46.626Z,50.99
2019-05-13T06:48:16.551Z,51.20
2019-05-13T06:50:46.384Z,51.10
2019-05-13T06:53:17.809Z,51.02
2019-05-13T06:55:47.745Z,51.48
2019-05-13T06:58:17.560Z,51.90
2019-05-13T07:00:47.461Z,52.56
2019-05-13T07:03:17.341Z,52.44
2019-05-13T07:05:47.143Z,52.12
2019-05-13T07:08:16.993Z,52.06
2019-05-13T07:10:47.246Z,52.44
2019-05-13T07:13:17.591Z,52.75
2019-05-13T07:15:47.878Z,52.81
2019-05-13T07:18:17.764Z,52.83
2019-05-13T07:20:47.588Z,53.11
2019-05-13T07:23:17.441Z,53.35
2019-05-13T07:25:47.859Z,53.49
2019-05-13T07:28:17.678Z,53.54
2019-05-13T07:30:48.209Z,53.59
2019-05-13T07:33:18.407Z,53.69
2019-05-13T07:35:48.349Z,53.86
2019-05-13T07:38:18.766Z,53.58
2019-05-13T07:40:52.568Z,53.32
2019-05-13T07:43:23.524Z,53.14
2019-05-13T07:45:53.639Z,53.11
2019-05-13T07:48:27.562Z,53.06
2019-05-13T07:51:00.157Z,52.94
2019-05-13T07:53:27.224Z,52.96
2019-05-13T07:55:57.186Z,53.15
2019-05-13T07:58:27.064Z,52.94
2019-05-13T08:00:58.129Z,52.83
2019-05-13T08:03:31.539Z,52.93
2019-05-13T08:06:02.010Z,52.93
2019-05-13T08:08:32.484Z,52.75
2019-05-13T08:11:02.571Z,52.89
2019-05-13T08:13:32.454Z,52.65
2019-05-13T08:16:02.632Z,52.13
2019-05-13T08:18:33.080Z,51.91
2019-05-13T08:21:03.031Z,51.91
2019-05-13T08:23:32.932Z,52.04
2019-05-13T08:26:02.948Z,51.84
2019-05-13T08:28:32.873Z,51.84
2019-05-13T08:31:02.720Z,51.73
2019-05-13T08:33:32.588Z,51.54
2019-05-13T08:36:02.555Z,51.44
2019-05-13T08:38:32.350Z,51.40
2019-05-13T08:41:02.314Z,51.28
2019-05-13T08:43:32.841Z,51.26
2019-05-13T08:46:03.149Z,51.25
2019-05-13T08:48:33.100Z,51.33
2019-05-13T08:51:03.500Z,51.28
2019-05-13T08:53:33.463Z,51.31
2019-05-13T08:56:03.446Z,51.05
2019-05-13T08:58:33.635Z,50.80
2019-05-13T09:01:03.511Z,50.40
2019-05-13T09:03:33.696Z,50.29
2019-05-13T09:06:03.834Z,50.33
2019-05-13T09:08:34.320Z,50.11
2019-05-13T09:11:04.337Z,49.91
2019-05-13T09:13:34.538Z,49.94
2019-05-13T09:16:04.916Z,49.80
2019-05-13T09:18:36.058Z,49.48
2019-05-13T09:21:05.982Z,49.54
2019-05-13T09:23:35.878Z,49.56
2019-05-13T09:26:06.327Z,49.17
2019-05-13T09:28:36.426Z,49.26
2019-05-13T09:31:06.347Z,49.09
2019-05-13T09:33:36.544Z,49.05
2019-05-13T09:36:06.408Z,49.08
2019-05-13T09:38:37.800Z,49.10
2019-05-13T09:41:07.700Z,48.85
2019-05-13T09:43:38.501Z,48.68
2019-05-13T09:46:08.366Z,48.82
2019-05-13T09:48:38.372Z,48.51
2019-05-13T09:51:08.261Z,48.32
2019-05-13T09:53:38.681Z,48.37
2019-05-13T09:56:08.566Z,47.86
2019-05-13T09:58:38.546Z,48.09
2019-05-13T10:01:08.719Z,47.59
2019-05-13T10:03:53.180Z,46.60
2019-05-13T10:06:12.615Z,46.85
2019-05-13T10:08:42.133Z,47.01
2019-05-13T10:11:12.488Z,47.02
2019-05-13T10:13:42.792Z,46.34
2019-05-13T10:16:12.731Z,46.26
2019-05-13T10:18:42.853Z,46.88
2019-05-13T10:21:12.871Z,46.49
2019-05-13T10:23:42.702Z,46.60
2019-05-13T10:26:14.501Z,46.50
2019-05-13T10:28:45.545Z,46.81
2019-05-13T10:31:15.557Z,45.77
2019-05-13T10:33:45.803Z,45.79
2019-05-13T10:36:16.305Z,45.96
2019-05-13T10:38:46.556Z,45.70
2019-05-13T10:41:17.800Z,46.11
2019-05-13T10:43:48.189Z,45.03
2019-05-13T10:46:18.548Z,45.64
2019-05-13T10:48:48.538Z,45.12
2019-05-13T10:51:18.313Z,45.21
2019-05-13T10:53:48.174Z,45.00
2019-05-13T10:56:17.927Z,44.71
2019-05-13T10:58:47.843Z,45.17
2019-05-13T11:01:17.719Z,45.05
2019-05-13T11:03:47.832Z,45.02
2019-05-13T11:06:17.941Z,44.41
2019-05-13T11:08:48.080Z,44.28
2019-05-13T11:11:18.426Z,43.46
2019-05-13T11:13:56.333Z,44.05
2019-05-13T11:16:22.587Z,44.16
2019-05-13T11:18:52.202Z,43.72
2019-05-13T11:21:22.422Z,43.99
2019-05-13T11:23:52.371Z,44.20
2019-05-13T11:26:22.591Z,43.50
2019-05-13T11:28:52.532Z,42.74
2019-05-13T11:31:22.689Z,42.62
2019-05-13T11:33:52.625Z,43.28
2019-05-13T11:36:23.715Z,42.83
2019-05-13T11:38:54.322Z,43.41
2019-05-13T11:41:24.312Z,43.22
2019-05-13T11:44:12.175Z,43.27
2019-05-13T11:46:25.638Z,43.31
2019-05-13T11:48:56.788Z,41.36
2019-05-13T11:51:27.321Z,41.75
2019-05-13T11:53:57.177Z,42.47
2019-05-13T11:56:27.076Z,42.45
2019-05-13T11:58:56.901Z,41.86
2019-05-13T12:01:26.729Z,41.77
2019-05-13T12:03:56.563Z,42.29
2019-05-13T12:06:26.992Z,42.10
2019-05-13T12:08:56.863Z,42.54
2019-05-13T12:11:27.658Z,40.95
2019-05-13T12:13:58.066Z,40.77
2019-05-13T12:16:27.893Z,41.80
2019-05-13T12:18:57.751Z,41.84
2019-05-13T12:21:27.692Z,41.77
2019-05-13T12:23:57.821Z,41.97
2019-05-13T12:26:27.842Z,41.14
2019-05-13T12:28:57.699Z,41.55
2019-05-13T12:31:28.253Z,42.13
2019-05-13T12:33:58.075Z,41.61
2019-05-13T12:36:27.950Z,41.39
2019-05-13T12:38:58.389Z,42.11
2019-05-13T12:41:32.766Z,41.24
2019-05-13T12:44:01.785Z,42.33
2019-05-13T12:46:32.220Z,42.28
2019-05-13T12:49:04.075Z,41.25
2019-05-13T12:51:34.044Z,42.21
2019-05-13T12:54:04.066Z,42.10
2019-05-13T12:56:34.399Z,41.73
2019-05-13T12:59:04.394Z,42.24
2019-05-13T13:01:34.410Z,41.61
2019-05-13T13:04:04.786Z,41.56
2019-05-13T13:06:40.610Z,41.79
2019-05-13T13:09:07.668Z,41.75
2019-05-13T13:11:37.469Z,42.04
2019-05-13T13:14:10.360Z,42.02
2019-05-13T13:16:42.156Z,42.91
2019-05-13T13:19:14.668Z,43.42
2019-05-13T13:21:42.421Z,43.18
2019-05-13T13:24:12.660Z,42.47
2019-05-13T13:26:43.333Z,41.93
2019-05-13T13:29:13.567Z,42.09
2019-05-13T13:31:44.520Z,40.75
2019-05-13T13:34:18.557Z,41.12
2019-05-13T13:36:46.678Z,40.92
2019-05-13T13:39:16.709Z,41.76
2019-05-13T13:41:46.927Z,41.33
2019-05-13T13:44:17.337Z,41.55
2019-05-13T13:46:49.242Z,41.32
2019-05-13T13:49:22.730Z,41.48
2019-05-13T13:51:50.196Z,41.66
2019-05-13T13:54:22.671Z,41.62
2019-05-13T13:56:55.883Z,41.65
2019-05-13T13:59:25.176Z,41.92
2019-05-13T14:01:55.493Z,42.22
2019-05-13T14:04:25.630Z,41.79
2019-05-13T14:09:27.303Z,41.11
2019-05-13T14:11:57.195Z,41.27
2019-05-13T14:14:27.187Z,41.05
2019-05-13T14:16:58.298Z,40.97
2019-05-13T14:19:28.451Z,41.29
2019-05-13T14:21:58.925Z,40.84
2019-05-13T14:24:28.742Z,40.46
2019-05-13T14:26:59.216Z,40.58
2019-05-13T14:29:38.454Z,40.58
2019-05-13T14:32:01.414Z,40.46
2019-05-13T14:34:33.161Z,40.58
2019-05-13T14:37:02.979Z,40.74
2019-05-13T14:39:35.852Z,40.22
2019-05-13T14:42:04.487Z,40.49
2019-05-13T14:44:34.390Z,40.25
2019-05-13T14:47:04.594Z,40.70
2019-05-13T14:49:34.502Z,39.86
2019-05-13T14:52:04.533Z,40.43
2019-05-13T14:54:34.549Z,40.14
2019-05-13T14:57:04.560Z,39.98
2019-05-13T14:59:34.394Z,40.05
2019-05-13T15:02:05.616Z,40.28
2019-05-13T15:04:35.502Z,40.41
2019-05-13T15:07:05.398Z,40.85
2019-05-13T15:09:35.233Z,40.88
2019-05-13T15:12:05.249Z,40.75
2019-05-13T15:14:35.338Z,40.53
2019-05-13T15:17:07.591Z,40.97
2019-05-13T15:19:37.007Z,40.06
2019-05-13T15:22:07.317Z,40.55
2019-05-13T15:24:37.089Z,40.50
2019-05-13T15:27:07.010Z,40.25
2019-05-13T15:29:36.847Z,40.84
2019-05-13T15:32:07.405Z,40.86
2019-05-13T15:34:37.963Z,40.58
2019-05-13T15:37:07.815Z,40.66
2019-05-13T15:39:37.915Z,40.43
2019-05-13T15:42:08.471Z,40.70
2019-05-13T15:44:38.451Z,40.92
2019-05-13T15:47:22.404Z,40.30
2019-05-13T15:49:40.460Z,40.39
2019-05-13T15:52:11.723Z,40.61
2019-05-13T15:54:42.940Z,40.67
2019-05-13T15:57:12.830Z,40.46
2019-05-13T15:59:43.398Z,40.84
2019-05-13T16:02:13.828Z,40.83
2019-05-13T16:05:02.219Z,41.03
2019-05-13T16:07:31.425Z,41.05
2019-05-13T16:10:02.078Z,41.17
2019-05-13T16:12:33.389Z,40.68
2019-05-13T16:15:04.656Z,40.35
2019-05-13T16:17:41.149Z,40.33
2019-05-13T16:20:09.934Z,40.80
2019-05-13T16:22:41.982Z,41.07
2019-05-13T16:25:12.153Z,40.84
2019-05-13T16:27:45.632Z,41.18
2019-05-13T16:30:15.806Z,41.05
2019-05-13T16:32:48.087Z,41.19
2019-05-13T16:35:17.600Z,40.82
2019-05-13T16:37:47.811Z,41.49
2019-05-13T16:40:17.800Z,41.71
2019-05-13T16:42:51.745Z,41.56
2019-05-13T16:45:21.839Z,41.09
2019-05-13T16:47:57.298Z,41.07
2019-05-13T16:50:24.605Z,41.09
2019-05-13T16:52:54.594Z,40.71
2019-05-13T16:55:24.896Z,41.15
2019-05-13T16:57:55.004Z,41.51
2019-05-13T17:00:25.079Z,41.40
2019-05-13T17:03:02.268Z,41.31
2019-05-13T17:05:34.279Z,41.47
2019-05-13T17:08:04.277Z,41.37
2019-05-13T17:10:34.265Z,41.34
2019-05-13T17:13:04.497Z,41.62
2019-05-13T17:15:35.064Z,41.40
2019-05-13T17:18:11.669Z,41.31
2019-05-13T17:20:37.342Z,41.68
2019-05-13T17:23:07.269Z,41.89
2019-05-13T17:25:37.675Z,41.76
2019-05-13T17:28:07.664Z,41.85
2019-05-13T17:30:37.938Z,42.01
2019-05-13T17:33:08.024Z,41.52
2019-05-13T17:35:38.249Z,41.60
2019-05-13T17:38:08.115Z,41.60
2019-05-13T17:40:38.176Z,41.85
2019-05-13T17:43:08.193Z,42.06
2019-05-13T17:45:38.316Z,42.17
2019-05-13T17:48:24.810Z,41.98
2019-05-13T17:50:41.355Z,42.17
2019-05-13T17:53:11.583Z,42.38
2019-05-13T17:55:41.415Z,42.53
2019-05-13T17:58:11.716Z,42.31
2019-05-13T18:00:41.720Z,42.22
2019-05-13T18:03:11.569Z,42.16
2019-05-13T18:05:42.110Z,42.16
2019-05-13T18:08:12.035Z,42.29
2019-05-13T18:10:42.093Z,42.59
2019-05-13T18:13:12.765Z,42.79
2019-05-13T18:15:42.853Z,42.83
2019-05-13T18:18:13.035Z,43.10
2019-05-13T18:20:42.918Z,42.82
2019-05-13T18:23:12.843Z,42.91
2019-05-13T18:25:42.896Z,43.01
2019-05-13T18:28:27.085Z,43.19
2019-05-13T18:30:44.545Z,43.30
2019-05-13T18:33:14.698Z,43.28
2019-05-13T18:35:44.554Z,43.39
2019-05-13T18:38:14.420Z,43.10
2019-05-13T18:40:49.768Z,43.29
2019-05-13T18:43:21.685Z,43.45
2019-05-13T18:45:52.571Z,43.63
2019-05-13T18:48:23.011Z,43.69
2019-05-13T18:50:54.253Z,43.79
2019-05-13T18:53:24.427Z,43.90
2019-05-13T18:55:55.361Z,43.95
2019-05-13T18:58:25.288Z,43.78
2019-05-13T19:00:56.129Z,43.63
2019-05-13T19:03:26.182Z,43.78
2019-05-13T19:05:56.052Z,43.72
2019-05-13T19:08:25.854Z,43.59
2019-05-13T19:10:56.233Z,43.83
2019-05-13T19:13:26.348Z,43.83
2019-05-13T19:15:56.207Z,43.92
2019-05-13T19:18:26.101Z,44.10
2019-05-13T19:20:57.009Z,44.10
2019-05-13T19:23:27.229Z,44.26
2019-05-13T19:25:58.533Z,44.33
2019-05-13T19:28:28.400Z,44.50
2019-05-13T19:30:58.201Z,44.44
2019-05-13T19:33:30.848Z,44.58
2019-05-13T19:36:01.447Z,44.57
2019-05-13T19:38:32.403Z,44.55
2019-05-13T19:41:02.560Z,44.66
2019-05-13T19:43:32.470Z,44.70
2019-05-13T19:46:02.660Z,44.77
2019-05-13T19:48:32.946Z,44.92
2019-05-13T19:51:02.993Z,44.99
2019-05-13T19:53:32.861Z,45.13
2019-05-13T19:56:06.730Z,45.17
2019-05-13T19:58:37.367Z,45.17
2019-05-13T20:01:11.490Z,45.28
2019-05-13T20:03:42.260Z,45.34
2019-05-13T20:06:12.851Z,45.43
2019-05-13T20:08:42.864Z,45.52
2019-05-13T20:11:12.927Z,45.59
2019-05-13T20:13:44.176Z,45.71
2019-05-13T20:16:14.075Z,45.86
2019-05-13T20:18:47.157Z,45.97
2019-05-13T20:21:17.226Z,46.13
2019-05-13T20:23:47.562Z,46.34
2019-05-13T20:26:17.468Z,46.46
2019-05-13T20:28:52.664Z,46.58
2019-05-13T20:31:23.394Z,46.71
2019-05-13T20:33:54.965Z,46.78
2019-05-13T20:36:25.673Z,46.93
2019-05-13T20:38:56.372Z,47.15
2019-05-13T20:41:26.306Z,47.29
2019-05-13T20:43:56.378Z,47.46
2019-05-13T20:46:26.525Z,47.49
2019-05-13T20:48:57.543Z,47.57
2019-05-13T20:51:27.456Z,47.58
2019-05-13T20:53:57.680Z,47.71
2019-05-13T20:56:28.644Z,47.80
2019-05-13T20:58:58.552Z,47.87
2019-05-13T21:01:29.447Z,48.12
2019-05-13T21:04:01.655Z,48.26
2019-05-13T21:06:31.578Z,48.10
2019-05-13T21:09:01.881Z,48.20
2019-05-13T21:11:32.672Z,48.33
2019-05-13T21:14:02.626Z,48.52
2019-05-13T21:16:32.431Z,48.47
2019-05-13T21:19:02.198Z,48.49
2019-05-13T21:21:32.110Z,48.60
2019-05-13T21:24:02.579Z,48.66
2019-05-13T21:26:32.585Z,48.94
2019-05-13T21:29:02.486Z,48.93
2019-05-13T21:31:32.469Z,48.92
2019-05-13T21:34:02.808Z,49.07
2019-05-13T21:36:33.105Z,49.09
2019-05-13T21:39:05.504Z,49.04
2019-05-13T21:41:36.836Z,49.56
2019-05-13T21:44:07.032Z,49.41
2019-05-13T21:46:37.324Z,49.48
2019-05-13T21:49:07.257Z,49.51
2019-05-13T21:51:37.288Z,49.57
2019-05-13T21:54:07.383Z,49.68
2019-05-13T21:56:37.370Z,49.68
2019-05-13T21:59:07.235Z,49.91
2019-05-13T22:01:37.232Z,49.99
2019-05-13T22:04:07.151Z,50.00
2019-05-13T22:06:37.046Z,50.18
2019-05-13T22:09:11.728Z,50.30
2019-05-13T22:11:42.065Z,50.19
2019-05-13T22:14:13.104Z,50.09
2019-05-13T22:16:43.261Z,50.09
2019-05-13T22:19:13.132Z,50.30
2019-05-13T22:21:43.065Z,50.28
2019-05-13T22:24:12.979Z,50.20
2019-05-13T22:26:43.062Z,50.56
2019-05-13T22:32:01.972Z,50.33
2019-05-13T22:34:32.719Z,50.63
2019-05-13T22:37:02.922Z,51.00
2019-05-13T22:39:34.868Z,51.00
2019-05-13T22:42:04.511Z,51.06
2019-05-13T22:44:34.378Z,51.37
2019-05-13T22:47:04.678Z,51.08
2019-05-13T22:49:34.541Z,51.08
2019-05-13T22:52:04.762Z,51.15
2019-05-13T22:54:35.762Z,51.29
2019-05-13T22:57:05.844Z,51.63
2019-05-13T22:59:36.321Z,51.66
2019-05-13T23:02:06.579Z,51.71
2019-05-13T23:04:36.397Z,52.16
2019-05-13T23:07:07.372Z,52.16
2019-05-13T23:09:37.283Z,52.21
2019-05-13T23:12:07.131Z,52.11
2019-05-13T23:14:37.049Z,52.16
2019-05-13T23:17:07.044Z,52.07
2019-05-13T23:19:36.852Z,52.20
2019-05-13T23:22:06.956Z,52.18
2019-05-13T23:24:36.766Z,52.30
2019-05-13T23:27:06.650Z,52.23
2019-05-13T23:41:21.765Z,52.72
2019-05-13T23:43:51.711Z,52.76
2019-05-13T23:46:22.229Z,52.57
2019-05-13T23:48:53.377Z,52.65
2019-05-13T23:51:23.469Z,52.81
2019-05-13T23:53:53.543Z,52.75
2019-05-13T23:56:23.499Z,52.80
2019-05-13T23:58:53.311Z,53.06
